OEDCL LJBL-LOWS
Flight info
| Callsign | OEDCL |
|---|---|
| Flight time | 1h 4m |
| Altitude | 10000 |
| Route | NIPEL DCT EVAXI DCT ADNET |
| Aircraft | C172/L-SFG/C |
Departure
| Time | 2026-05-04 17:34 |
|---|---|
| Airport | Lesce Airfield (LJBL) |
Arrival
| Time | 2026-05-04 18:39 |
|---|---|
| Airport | Salzburg Airport (LOWS) |
| Time | Latitude | Longitude | Altitude | Speed | Heading |
|---|---|---|---|---|---|
| 2026-05-04 17:31 | 46.35885 | 14.17178 | 1677 ft | 0 kts | 144° |
| 2026-05-04 17:33 | 46.35869 | 14.17194 | 1689 ft | 17 kts | 143° |
| 2026-05-04 17:33 | 46.35638 | 14.17440 | 1672 ft | 63 kts | 143° |
| 2026-05-04 17:34 | 46.34335 | 14.18842 | 2183 ft | 81 kts | 156° |
| 2026-05-04 17:34 | 46.33833 | 14.18644 | 2347 ft | 86 kts | 229° |
| 2026-05-04 17:35 | 46.34727 | 14.16626 | 2927 ft | 107 kts | 328° |
| 2026-05-04 17:35 | 46.36019 | 14.15555 | 3403 ft | 104 kts | 325° |
| 2026-05-04 17:35 | 46.36666 | 14.14996 | 3505 ft | 117 kts | 326° |
| 2026-05-04 17:36 | 46.37415 | 14.14387 | 3507 ft | 130 kts | 339° |
| 2026-05-04 17:36 | 46.38324 | 14.14244 | 3510 ft | 135 kts | 351° |
| 2026-05-04 17:36 | 46.39159 | 14.13677 | 3520 ft | 132 kts | 322° |
| 2026-05-04 17:36 | 46.39873 | 14.12931 | 3681 ft | 121 kts | 322° |
| 2026-05-04 17:37 | 46.40528 | 14.12235 | 3909 ft | 113 kts | 320° |
| 2026-05-04 17:37 | 46.41132 | 14.11591 | 4148 ft | 104 kts | 319° |
| 2026-05-04 17:37 | 46.41681 | 14.11002 | 4384 ft | 96 kts | 317° |
| 2026-05-04 17:37 | 46.42231 | 14.10409 | 4629 ft | 100 kts | 317° |
| 2026-05-04 17:38 | 46.42779 | 14.09828 | 4869 ft | 95 kts | 317° |
| 2026-05-04 17:38 | 46.43292 | 14.09287 | 5097 ft | 88 kts | 316° |
| 2026-05-04 17:38 | 46.43748 | 14.08798 | 5308 ft | 75 kts | 310° |
| 2026-05-04 17:38 | 46.44139 | 14.08372 | 5484 ft | 70 kts | 311° |
| 2026-05-04 17:39 | 46.44993 | 14.07458 | 5696 ft | 82 kts | 313° |
| 2026-05-04 17:39 | 46.45117 | 14.06729 | 5793 ft | 84 kts | 236° |
| 2026-05-04 17:39 | 46.44564 | 14.06603 | 5893 ft | 99 kts | 155° |
| 2026-05-04 17:40 | 46.44315 | 14.07604 | 6005 ft | 122 kts | 79° |
| 2026-05-04 17:40 | 46.44867 | 14.08434 | 6132 ft | 115 kts | 7° |
| 2026-05-04 17:40 | 46.45501 | 14.08052 | 6278 ft | 95 kts | 289° |
| 2026-05-04 17:40 | 46.45656 | 14.07170 | 6441 ft | 93 kts | 288° |
| 2026-05-04 17:41 | 46.46097 | 14.06468 | 6598 ft | 97 kts | 314° |
| 2026-05-04 17:41 | 46.46623 | 14.05824 | 6747 ft | 100 kts | 314° |
| 2026-05-04 17:41 | 46.47167 | 14.05197 | 6895 ft | 100 kts | 314° |
| 2026-05-04 17:41 | 46.47709 | 14.04591 | 6996 ft | 102 kts | 316° |
| 2026-05-04 17:42 | 46.48295 | 14.03955 | 6995 ft | 106 kts | 319° |
| 2026-05-04 17:42 | 46.48884 | 14.03317 | 6998 ft | 104 kts | 315° |
| 2026-05-04 17:42 | 46.49353 | 14.02526 | 7009 ft | 106 kts | 302° |
| 2026-05-04 17:42 | 46.49824 | 14.01695 | 7009 ft | 106 kts | 306° |
| 2026-05-04 17:43 | 46.50297 | 14.00859 | 7012 ft | 110 kts | 304° |
| 2026-05-04 17:43 | 46.50788 | 13.99987 | 7006 ft | 113 kts | 304° |
| 2026-05-04 17:43 | 46.51282 | 13.99120 | 7013 ft | 110 kts | 304° |
| 2026-05-04 17:43 | 46.51760 | 13.98277 | 7001 ft | 107 kts | 304° |
| 2026-05-04 17:44 | 46.52230 | 13.97446 | 6991 ft | 105 kts | 304° |
| 2026-05-04 17:44 | 46.52680 | 13.96641 | 6989 ft | 99 kts | 301° |
| 2026-05-04 17:44 | 46.53093 | 13.95906 | 7003 ft | 97 kts | 301° |
| 2026-05-04 17:44 | 46.53528 | 13.95136 | 7000 ft | 98 kts | 302° |
| 2026-05-04 17:45 | 46.53965 | 13.94356 | 6997 ft | 101 kts | 302° |
| 2026-05-04 17:45 | 46.54823 | 13.92836 | 7012 ft | 106 kts | 303° |
| 2026-05-04 17:45 | 46.55293 | 13.92001 | 7004 ft | 108 kts | 303° |
| 2026-05-04 17:46 | 46.56299 | 13.90217 | 7007 ft | 113 kts | 303° |
| 2026-05-04 17:46 | 46.56797 | 13.89333 | 7009 ft | 114 kts | 303° |
| 2026-05-04 17:46 | 46.57302 | 13.88435 | 7012 ft | 115 kts | 304° |
| 2026-05-04 17:47 | 46.57811 | 13.87532 | 7009 ft | 116 kts | 304° |
| 2026-05-04 17:47 | 46.58318 | 13.86631 | 7010 ft | 114 kts | 303° |
| 2026-05-04 17:47 | 46.58817 | 13.85741 | 7010 ft | 113 kts | 303° |
| 2026-05-04 17:47 | 46.59316 | 13.84854 | 7012 ft | 114 kts | 304° |
| 2026-05-04 17:48 | 46.59816 | 13.83962 | 7004 ft | 114 kts | 304° |
| 2026-05-04 17:48 | 46.60318 | 13.83067 | 7009 ft | 114 kts | 304° |
| 2026-05-04 17:48 | 46.60814 | 13.82183 | 7006 ft | 114 kts | 304° |
| 2026-05-04 17:48 | 46.61317 | 13.81288 | 7008 ft | 114 kts | 304° |
| 2026-05-04 17:49 | 46.61820 | 13.80390 | 7012 ft | 114 kts | 304° |
| 2026-05-04 17:49 | 46.62320 | 13.79498 | 7010 ft | 113 kts | 304° |
| 2026-05-04 17:49 | 46.62814 | 13.78615 | 7007 ft | 112 kts | 304° |
| 2026-05-04 17:49 | 46.63309 | 13.77728 | 7007 ft | 113 kts | 304° |
| 2026-05-04 17:50 | 46.63808 | 13.76839 | 7002 ft | 113 kts | 304° |
| 2026-05-04 17:50 | 46.64301 | 13.75959 | 6996 ft | 111 kts | 305° |
| 2026-05-04 17:50 | 46.64787 | 13.75092 | 7000 ft | 110 kts | 304° |
| 2026-05-04 17:50 | 46.65267 | 13.74232 | 6998 ft | 110 kts | 304° |
| 2026-05-04 17:51 | 46.65801 | 13.73441 | 7003 ft | 113 kts | 315° |
| 2026-05-04 17:51 | 46.66406 | 13.72707 | 7003 ft | 113 kts | 314° |
| 2026-05-04 17:51 | 46.67007 | 13.71970 | 7001 ft | 113 kts | 314° |
| 2026-05-04 17:51 | 46.67607 | 13.71233 | 7001 ft | 113 kts | 314° |
| 2026-05-04 17:52 | 46.68211 | 13.70493 | 7003 ft | 114 kts | 314° |
| 2026-05-04 17:52 | 46.68822 | 13.69745 | 7010 ft | 115 kts | 315° |
| 2026-05-04 17:52 | 46.69433 | 13.68993 | 7007 ft | 115 kts | 314° |
| 2026-05-04 17:52 | 46.70046 | 13.68236 | 7006 ft | 116 kts | 314° |
| 2026-05-04 17:53 | 46.70660 | 13.67474 | 7012 ft | 117 kts | 314° |
| 2026-05-04 17:53 | 46.71287 | 13.66698 | 7015 ft | 120 kts | 315° |
| 2026-05-04 17:53 | 46.71921 | 13.65917 | 7012 ft | 120 kts | 314° |
| 2026-05-04 17:53 | 46.72558 | 13.65129 | 7017 ft | 120 kts | 314° |
| 2026-05-04 17:54 | 46.73194 | 13.64343 | 7016 ft | 120 kts | 314° |
| 2026-05-04 17:54 | 46.73834 | 13.63548 | 7012 ft | 121 kts | 314° |
| 2026-05-04 17:54 | 46.74470 | 13.62758 | 7013 ft | 120 kts | 314° |
| 2026-05-04 17:54 | 46.75107 | 13.61964 | 7010 ft | 122 kts | 315° |
| 2026-05-04 17:55 | 46.75759 | 13.61153 | 7006 ft | 124 kts | 315° |
| 2026-05-04 17:55 | 46.76410 | 13.60343 | 7021 ft | 121 kts | 313° |
| 2026-05-04 17:55 | 46.77050 | 13.59560 | 7014 ft | 118 kts | 313° |
| 2026-05-04 17:55 | 46.77670 | 13.58809 | 7016 ft | 114 kts | 315° |
| 2026-05-04 17:56 | 46.78283 | 13.58084 | 7019 ft | 114 kts | 313° |
| 2026-05-04 17:56 | 46.78892 | 13.57355 | 7018 ft | 112 kts | 313° |
| 2026-05-04 17:56 | 46.79485 | 13.56652 | 7021 ft | 111 kts | 314° |
| 2026-05-04 17:56 | 46.80082 | 13.55935 | 7020 ft | 112 kts | 314° |
| 2026-05-04 17:57 | 46.80682 | 13.55204 | 7024 ft | 112 kts | 315° |
| 2026-05-04 17:57 | 46.81289 | 13.54472 | 7028 ft | 114 kts | 315° |
| 2026-05-04 17:57 | 46.81912 | 13.53730 | 7030 ft | 117 kts | 319° |
| 2026-05-04 17:57 | 46.82706 | 13.53380 | 7041 ft | 124 kts | 354° |
| 2026-05-04 17:58 | 46.83592 | 13.53351 | 7034 ft | 128 kts | 354° |
| 2026-05-04 17:58 | 46.84483 | 13.53314 | 7034 ft | 128 kts | 354° |
| 2026-05-04 17:58 | 46.85369 | 13.53285 | 7038 ft | 129 kts | 355° |
| 2026-05-04 17:58 | 46.86267 | 13.53246 | 7040 ft | 129 kts | 354° |
| 2026-05-04 17:59 | 46.87145 | 13.53216 | 7026 ft | 126 kts | 354° |
| 2026-05-04 17:59 | 46.88038 | 13.53180 | 7015 ft | 130 kts | 356° |
| 2026-05-04 17:59 | 46.89699 | 13.54067 | 7032 ft | 133 kts | 32° |
| 2026-05-04 18:00 | 46.90493 | 13.54784 | 7034 ft | 135 kts | 32° |
| 2026-05-04 18:00 | 46.91291 | 13.55511 | 7024 ft | 133 kts | 31° |
| 2026-05-04 18:00 | 46.92069 | 13.56218 | 7021 ft | 131 kts | 32° |
| 2026-05-04 18:00 | 46.92836 | 13.56918 | 7060 ft | 127 kts | 31° |
| 2026-05-04 18:01 | 46.93570 | 13.57579 | 7139 ft | 121 kts | 31° |
| 2026-05-04 18:01 | 46.94272 | 13.58218 | 7214 ft | 118 kts | 32° |
| 2026-05-04 18:01 | 46.94972 | 13.58840 | 7279 ft | 118 kts | 31° |
| 2026-05-04 18:02 | 46.96353 | 13.60051 | 7404 ft | 114 kts | 30° |
| 2026-05-04 18:02 | 46.97020 | 13.60657 | 7474 ft | 112 kts | 32° |
| 2026-05-04 18:02 | 46.97678 | 13.61252 | 7506 ft | 113 kts | 31° |
| 2026-05-04 18:02 | 46.98432 | 13.61725 | 7508 ft | 121 kts | 3° |
| 2026-05-04 18:03 | 46.99241 | 13.61864 | 7512 ft | 115 kts | 5° |
| 2026-05-04 18:03 | 47.00060 | 13.62015 | 7520 ft | 124 kts | 4° |
| 2026-05-04 18:03 | 47.00957 | 13.62111 | 7518 ft | 132 kts | 352° |
| 2026-05-04 18:03 | 47.01881 | 13.61977 | 7516 ft | 134 kts | 350° |
| 2026-05-04 18:04 | 47.02803 | 13.61857 | 7513 ft | 132 kts | 351° |
| 2026-05-04 18:04 | 47.03714 | 13.61718 | 7504 ft | 131 kts | 351° |
| 2026-05-04 18:04 | 47.05495 | 13.61458 | 7494 ft | 126 kts | 351° |
| 2026-05-04 18:05 | 47.06377 | 13.61330 | 7510 ft | 129 kts | 348° |
| 2026-05-04 18:05 | 47.07268 | 13.61203 | 7498 ft | 126 kts | 349° |
| 2026-05-04 18:05 | 47.08086 | 13.61390 | 7496 ft | 121 kts | 38° |
| 2026-05-04 18:05 | 47.08542 | 13.62411 | 7506 ft | 120 kts | 63° |
| 2026-05-04 18:06 | 47.09373 | 13.64562 | 7500 ft | 123 kts | 64° |
| 2026-05-04 18:06 | 47.09802 | 13.65657 | 7512 ft | 125 kts | 62° |
| 2026-05-04 18:06 | 47.10238 | 13.66788 | 7511 ft | 129 kts | 63° |
| 2026-05-04 18:07 | 47.10710 | 13.67913 | 7493 ft | 130 kts | 48° |
| 2026-05-04 18:07 | 47.11504 | 13.68328 | 7479 ft | 118 kts | 348° |
| 2026-05-04 18:07 | 47.12210 | 13.67910 | 7486 ft | 108 kts | 333° |
| 2026-05-04 18:07 | 47.12897 | 13.67506 | 7482 ft | 105 kts | 332° |
| 2026-05-04 18:08 | 47.13594 | 13.67101 | 7500 ft | 111 kts | 334° |
| 2026-05-04 18:08 | 47.14331 | 13.66674 | 7505 ft | 118 kts | 334° |
| 2026-05-04 18:08 | 47.15069 | 13.66093 | 7506 ft | 124 kts | 318° |
| 2026-05-04 18:08 | 47.15728 | 13.65243 | 7504 ft | 128 kts | 314° |
| 2026-05-04 18:09 | 47.16817 | 13.63842 | 7494 ft | 121 kts | 315° |
| 2026-05-04 18:09 | 47.18257 | 13.61857 | 7497 ft | 122 kts | 311° |
| 2026-05-04 18:10 | 47.18863 | 13.60972 | 7494 ft | 125 kts | 311° |
| 2026-05-04 18:10 | 47.19489 | 13.60047 | 7502 ft | 131 kts | 310° |
| 2026-05-04 18:10 | 47.20146 | 13.59062 | 7481 ft | 135 kts | 311° |
| 2026-05-04 18:10 | 47.20851 | 13.58169 | 7487 ft | 135 kts | 332° |
| 2026-05-04 18:11 | 47.21438 | 13.57926 | 7470 ft | 127 kts | 349° |
| 2026-05-04 18:11 | 47.22278 | 13.57736 | 7480 ft | 123 kts | 351° |
| 2026-05-04 18:11 | 47.23143 | 13.57575 | 7482 ft | 127 kts | 351° |
| 2026-05-04 18:11 | 47.23986 | 13.57264 | 7475 ft | 124 kts | 320° |
| 2026-05-04 18:12 | 47.24557 | 13.56365 | 7480 ft | 118 kts | 303° |
| 2026-05-04 18:12 | 47.24992 | 13.55358 | 7464 ft | 116 kts | 281° |
| 2026-05-04 18:12 | 47.25090 | 13.54195 | 7478 ft | 116 kts | 274° |
| 2026-05-04 18:12 | 47.25179 | 13.52997 | 7488 ft | 121 kts | 272° |
| 2026-05-04 18:13 | 47.25266 | 13.51780 | 7484 ft | 116 kts | 270° |
| 2026-05-04 18:13 | 47.25545 | 13.50663 | 7492 ft | 125 kts | 315° |
| 2026-05-04 18:13 | 47.27203 | 13.50195 | 7482 ft | 131 kts | 16° |
| 2026-05-04 18:14 | 47.28095 | 13.50541 | 7488 ft | 134 kts | 14° |
| 2026-05-04 18:14 | 47.29002 | 13.50895 | 7486 ft | 135 kts | 14° |
| 2026-05-04 18:14 | 47.29921 | 13.51191 | 7473 ft | 135 kts | 1° |
| 2026-05-04 18:15 | 47.31754 | 13.50989 | 7562 ft | 131 kts | 354° |
| 2026-05-04 18:15 | 47.33589 | 13.50760 | 7577 ft | 134 kts | 353° |
| 2026-05-04 18:15 | 47.34523 | 13.50644 | 7577 ft | 135 kts | 354° |
| 2026-05-04 18:16 | 47.35438 | 13.50488 | 7572 ft | 133 kts | 343° |
| 2026-05-04 18:16 | 47.36254 | 13.49875 | 7568 ft | 132 kts | 326° |
| 2026-05-04 18:16 | 47.36907 | 13.48965 | 7563 ft | 129 kts | 300° |
| 2026-05-04 18:17 | 47.37750 | 13.46706 | 7563 ft | 123 kts | 294° |
| 2026-05-04 18:17 | 47.38142 | 13.45592 | 7560 ft | 122 kts | 294° |
| 2026-05-04 18:17 | 47.38930 | 13.43356 | 7563 ft | 124 kts | 294° |
| 2026-05-04 18:18 | 47.39326 | 13.42219 | 7566 ft | 125 kts | 295° |
| 2026-05-04 18:18 | 47.39727 | 13.41068 | 7569 ft | 127 kts | 295° |
| 2026-05-04 18:18 | 47.40136 | 13.39902 | 7538 ft | 129 kts | 295° |
| 2026-05-04 18:18 | 47.40643 | 13.38807 | 7492 ft | 133 kts | 317° |
| 2026-05-04 18:19 | 47.42370 | 13.37822 | 7401 ft | 136 kts | 349° |
| 2026-05-04 18:19 | 47.43315 | 13.37946 | 7363 ft | 138 kts | 12° |
| 2026-05-04 18:19 | 47.44255 | 13.38265 | 7315 ft | 138 kts | 12° |
| 2026-05-04 18:20 | 47.45195 | 13.38580 | 7265 ft | 139 kts | 12° |
| 2026-05-04 18:20 | 47.46138 | 13.38896 | 7218 ft | 139 kts | 13° |
| 2026-05-04 18:20 | 47.47081 | 13.39212 | 7167 ft | 138 kts | 12° |
| 2026-05-04 18:20 | 47.48005 | 13.39524 | 7117 ft | 135 kts | 12° |
| 2026-05-04 18:21 | 47.48919 | 13.39826 | 7064 ft | 134 kts | 12° |
| 2026-05-04 18:21 | 47.49817 | 13.40124 | 7009 ft | 134 kts | 12° |
| 2026-05-04 18:21 | 47.50721 | 13.40469 | 6964 ft | 134 kts | 26° |
| 2026-05-04 18:21 | 47.51456 | 13.41305 | 6916 ft | 133 kts | 43° |
| 2026-05-04 18:22 | 47.52161 | 13.42179 | 6867 ft | 131 kts | 42° |
| 2026-05-04 18:22 | 47.52865 | 13.43049 | 6824 ft | 133 kts | 41° |
| 2026-05-04 18:22 | 47.53574 | 13.43938 | 6776 ft | 134 kts | 41° |
| 2026-05-04 18:22 | 47.54304 | 13.44797 | 6713 ft | 135 kts | 28° |
| 2026-05-04 18:23 | 47.55220 | 13.44831 | 6602 ft | 136 kts | 334° |
| 2026-05-04 18:23 | 47.55992 | 13.44079 | 6499 ft | 131 kts | 314° |
| 2026-05-04 18:23 | 47.56583 | 13.43064 | 6405 ft | 129 kts | 303° |
| 2026-05-04 18:23 | 47.57052 | 13.41934 | 6302 ft | 129 kts | 295° |
| 2026-05-04 18:24 | 47.57405 | 13.40726 | 6213 ft | 131 kts | 291° |
| 2026-05-04 18:24 | 47.57763 | 13.39481 | 6111 ft | 132 kts | 292° |
| 2026-05-04 18:24 | 47.58124 | 13.38235 | 6037 ft | 131 kts | 291° |
| 2026-05-04 18:24 | 47.58472 | 13.37020 | 6032 ft | 126 kts | 291° |
| 2026-05-04 18:25 | 47.58815 | 13.35833 | 6027 ft | 125 kts | 291° |
| 2026-05-04 18:25 | 47.59154 | 13.34650 | 6018 ft | 125 kts | 291° |
| 2026-05-04 18:25 | 47.59499 | 13.33456 | 5905 ft | 127 kts | 292° |
| 2026-05-04 18:25 | 47.59842 | 13.32250 | 5812 ft | 127 kts | 291° |
| 2026-05-04 18:26 | 47.60186 | 13.31037 | 5712 ft | 128 kts | 291° |
| 2026-05-04 18:26 | 47.60529 | 13.29816 | 5615 ft | 129 kts | 291° |
| 2026-05-04 18:26 | 47.60867 | 13.28610 | 5511 ft | 129 kts | 291° |
| 2026-05-04 18:26 | 47.61210 | 13.27386 | 5379 ft | 128 kts | 293° |
| 2026-05-04 18:27 | 47.61632 | 13.26213 | 5263 ft | 130 kts | 299° |
| 2026-05-04 18:27 | 47.62087 | 13.25054 | 5142 ft | 131 kts | 300° |
| 2026-05-04 18:27 | 47.62540 | 13.23886 | 5020 ft | 131 kts | 300° |
| 2026-05-04 18:27 | 47.62984 | 13.22740 | 4988 ft | 125 kts | 300° |
| 2026-05-04 18:28 | 47.63418 | 13.21618 | 4908 ft | 125 kts | 300° |
| 2026-05-04 18:28 | 47.63849 | 13.20498 | 4835 ft | 125 kts | 300° |
| 2026-05-04 18:28 | 47.64295 | 13.19391 | 4760 ft | 125 kts | 309° |
| 2026-05-04 18:28 | 47.64922 | 13.18491 | 4658 ft | 127 kts | 317° |
| 2026-05-04 18:29 | 47.65552 | 13.17576 | 4537 ft | 129 kts | 315° |
| 2026-05-04 18:29 | 47.66184 | 13.16617 | 4416 ft | 130 kts | 314° |
| 2026-05-04 18:29 | 47.66814 | 13.15645 | 4294 ft | 131 kts | 314° |
| 2026-05-04 18:29 | 47.67446 | 13.14665 | 4171 ft | 132 kts | 314° |
| 2026-05-04 18:30 | 47.68704 | 13.12708 | 3926 ft | 129 kts | 314° |
| 2026-05-04 18:30 | 47.69363 | 13.11807 | 3748 ft | 129 kts | 313° |
| 2026-05-04 18:30 | 47.70037 | 13.10950 | 3586 ft | 129 kts | 332° |
| 2026-05-04 18:31 | 47.70812 | 13.10305 | 3490 ft | 123 kts | 332° |
| 2026-05-04 18:31 | 47.71537 | 13.09728 | 3481 ft | 114 kts | 334° |
| 2026-05-04 18:31 | 47.72218 | 13.09216 | 3452 ft | 107 kts | 335° |
| 2026-05-04 18:31 | 47.72798 | 13.08586 | 3386 ft | 105 kts | 316° |
| 2026-05-04 18:32 | 47.73232 | 13.07731 | 3321 ft | 103 kts | 300° |
| 2026-05-04 18:32 | 47.73527 | 13.06756 | 3232 ft | 104 kts | 296° |
| 2026-05-04 18:32 | 47.73821 | 13.05763 | 3124 ft | 106 kts | 296° |
| 2026-05-04 18:32 | 47.74120 | 13.04750 | 3001 ft | 108 kts | 296° |
| 2026-05-04 18:33 | 47.74424 | 13.03731 | 2880 ft | 108 kts | 296° |
| 2026-05-04 18:33 | 47.74739 | 13.02720 | 2758 ft | 107 kts | 297° |
| 2026-05-04 18:33 | 47.75068 | 13.01749 | 2631 ft | 103 kts | 302° |
| 2026-05-04 18:33 | 47.75489 | 13.00908 | 2502 ft | 100 kts | 316° |
| 2026-05-04 18:34 | 47.76007 | 13.00278 | 2482 ft | 94 kts | 330° |
| 2026-05-04 18:34 | 47.76591 | 12.99882 | 2477 ft | 90 kts | 343° |
| 2026-05-04 18:34 | 47.77178 | 12.99695 | 2475 ft | 85 kts | 353° |
| 2026-05-04 18:34 | 47.77746 | 12.99593 | 2475 ft | 81 kts | 353° |
| 2026-05-04 18:35 | 47.78285 | 12.99416 | 2479 ft | 80 kts | 339° |
| 2026-05-04 18:35 | 47.78796 | 12.99047 | 2458 ft | 80 kts | 337° |
| 2026-05-04 18:35 | 47.79299 | 12.98706 | 2465 ft | 80 kts | 339° |
| 2026-05-04 18:35 | 47.79817 | 12.98419 | 2467 ft | 81 kts | 343° |
| 2026-05-04 18:36 | 47.80354 | 12.98186 | 2503 ft | 79 kts | 345° |
| 2026-05-04 18:36 | 47.80788 | 12.97676 | 2473 ft | 82 kts | 330° |
| 2026-05-04 18:36 | 47.81304 | 12.97338 | 2418 ft | 80 kts | 340° |
| 2026-05-04 18:36 | 47.81808 | 12.96986 | 2315 ft | 80 kts | 334° |
| 2026-05-04 18:37 | 47.82323 | 12.96985 | 2178 ft | 76 kts | 37° |
| 2026-05-04 18:37 | 47.82465 | 12.97713 | 1999 ft | 80 kts | 104° |
| 2026-05-04 18:37 | 47.82175 | 12.98401 | 1871 ft | 76 kts | 130° |
| 2026-05-04 18:37 | 47.81762 | 12.98855 | 1774 ft | 74 kts | 150° |
| 2026-05-04 18:38 | 47.81295 | 12.99169 | 1699 ft | 74 kts | 157° |
| 2026-05-04 18:38 | 47.80815 | 12.99466 | 1614 ft | 75 kts | 158° |
| 2026-05-04 18:38 | 47.80346 | 12.99755 | 1482 ft | 72 kts | 158° |
| 2026-05-04 18:38 | 47.79913 | 13.00031 | 1415 ft | 59 kts | 158° |
| 2026-05-04 18:39 | 47.79595 | 13.00231 | 1419 ft | 42 kts | 156° |
| 2026-05-04 18:39 | 47.79424 | 13.00296 | 1421 ft | 17 kts | 230° |
| 2026-05-04 18:39 | 47.79393 | 13.00196 | 1418 ft | 6 kts | 246° |
| 2026-05-04 18:39 | 47.79383 | 13.00159 | 1418 ft | 2 kts | 248° |
| 2026-05-04 18:40 | 47.79382 | 13.00156 | 1418 ft | 1 kts | 246° |
| 2026-05-04 18:40 | 47.79377 | 13.00135 | 1417 ft | 3 kts | 265° |
| 2026-05-04 18:40 | 47.79414 | 13.00077 | 1417 ft | 14 kts | 335° |
| 2026-05-04 18:40 | 47.79533 | 13.00006 | 1418 ft | 18 kts | 334° |
| 2026-05-04 18:41 | 47.79535 | 12.99866 | 1417 ft | 14 kts | 209° |
| 2026-05-04 18:41 | 47.79518 | 12.99792 | 1418 ft | 5 kts | 336° |
| 2026-05-04 18:41 | 47.79520 | 12.99791 | 1418 ft | 0 kts | 336° |